sensor_id;sensor_type;location;lat;lon;timestamp;pressure;altitude;pressure_sealevel;temperature;humidity
62038;BME280;47991;42.974;12.082;2023-03-05T00:01:28;97523.30;;;0.40;75.17
62038;BME280;47991;42.974;12.082;2023-03-05T00:03:55;97520.46;;;0.32;75.37
62038;BME280;47991;42.974;12.082;2023-03-05T00:06:23;97517.48;;;0.29;75.69
62038;BME280;47991;42.974;12.082;2023-03-05T00:08:51;97519.91;;;0.29;74.67
62038;BME280;47991;42.974;12.082;2023-03-05T00:11:19;97513.38;;;0.38;74.20
62038;BME280;47991;42.974;12.082;2023-03-05T00:14:11;97515.69;;;0.45;74.98
62038;BME280;47991;42.974;12.082;2023-03-05T00:16:38;97517.14;;;0.53;74.97
62038;BME280;47991;42.974;12.082;2023-03-05T00:19:04;97518.03;;;0.56;73.50
62038;BME280;47991;42.974;12.082;2023-03-05T00:21:34;97517.17;;;0.59;74.40
62038;BME280;47991;42.974;12.082;2023-03-05T00:24:03;97511.80;;;0.61;72.95
62038;BME280;47991;42.974;12.082;2023-03-05T00:26:31;97513.83;;;0.51;75.34
62038;BME280;47991;42.974;12.082;2023-03-05T00:28:59;97517.21;;;0.39;75.42
62038;BME280;47991;42.974;12.082;2023-03-05T00:31:27;97518.41;;;0.36;76.22
62038;BME280;47991;42.974;12.082;2023-03-05T00:33:58;97519.30;;;0.38;75.98
62038;BME280;47991;42.974;12.082;2023-03-05T00:36:24;97519.23;;;0.32;75.29
62038;BME280;47991;42.974;12.082;2023-03-05T00:38:51;97519.01;;;0.23;76.26
62038;BME280;47991;42.974;12.082;2023-03-05T00:41:17;97513.41;;;0.21;76.05
62038;BME280;47991;42.974;12.082;2023-03-05T00:43:43;97518.08;;;0.18;76.91
62038;BME280;47991;42.974;12.082;2023-03-05T00:46:10;97520.31;;;0.15;77.66
62038;BME280;47991;42.974;12.082;2023-03-05T00:48:36;97518.23;;;0.14;76.60
62038;BME280;47991;42.974;12.082;2023-03-05T00:51:03;97520.83;;;0.13;75.88
62038;BME280;47991;42.974;12.082;2023-03-05T00:53:29;97516.97;;;0.10;75.35
62038;BME280;47991;42.974;12.082;2023-03-05T00:55:55;97516.98;;;0.10;75.66
62038;BME280;47991;42.974;12.082;2023-03-05T00:58:21;97512.30;;;0.14;75.82
62038;BME280;47991;42.974;12.082;2023-03-05T01:00:47;97509.05;;;0.19;77.65
62038;BME280;47991;42.974;12.082;2023-03-05T01:03:16;97511.33;;;0.20;77.47
62038;BME280;47991;42.974;12.082;2023-03-05T01:05:43;97506.27;;;0.18;77.23
62038;BME280;47991;42.974;12.082;2023-03-05T01:08:10;97508.56;;;0.22;77.10
62038;BME280;47991;42.974;12.082;2023-03-05T01:10:36;97501.48;;;0.30;77.03
62038;BME280;47991;42.974;12.082;2023-03-05T01:13:02;97499.70;;;0.22;77.27
62038;BME280;47991;42.974;12.082;2023-03-05T01:15:29;97500.50;;;0.16;76.13
62038;BME280;47991;42.974;12.082;2023-03-05T01:17:55;97495.75;;;0.10;76.30
62038;BME280;47991;42.974;12.082;2023-03-05T01:20:21;97497.24;;;0.00;75.75
62038;BME280;47991;42.974;12.082;2023-03-05T01:22:48;97494.58;;;-0.05;76.64
62038;BME280;47991;42.974;12.082;2023-03-05T01:25:15;97492.30;;;-0.09;76.80
62038;BME280;47991;42.974;12.082;2023-03-05T01:27:42;97489.51;;;-0.10;76.46
62038;BME280;47991;42.974;12.082;2023-03-05T01:30:11;97489.48;;;-0.14;76.15
62038;BME280;47991;42.974;12.082;2023-03-05T01:32:38;97494.13;;;-0.16;76.91
62038;BME280;47991;42.974;12.082;2023-03-05T01:35:07;97490.99;;;-0.18;77.04
62038;BME280;47991;42.974;12.082;2023-03-05T01:37:33;97490.11;;;-0.19;76.28
62038;BME280;47991;42.974;12.082;2023-03-05T01:40:03;97490.63;;;-0.21;76.67
62038;BME280;47991;42.974;12.082;2023-03-05T01:42:30;97485.37;;;-0.25;77.34
62038;BME280;47991;42.974;12.082;2023-03-05T01:47:52;97487.41;;;-0.30;77.93
62038;BME280;47991;42.974;12.082;2023-03-05T01:50:21;97484.17;;;-0.23;79.56
62038;BME280;47991;42.974;12.082;2023-03-05T01:52:53;97485.97;;;-0.16;77.10
62038;BME280;47991;42.974;12.082;2023-03-05T01:55:23;97480.10;;;-0.10;77.47
62038;BME280;47991;42.974;12.082;2023-03-05T01:57:55;97481.77;;;-0.20;78.28
62038;BME280;47991;42.974;12.082;2023-03-05T02:00:49;97486.09;;;-0.22;77.16
62038;BME280;47991;42.974;12.082;2023-03-05T02:03:17;97481.77;;;-0.21;78.43
62038;BME280;47991;42.974;12.082;2023-03-05T02:05:44;97476.37;;;-0.23;77.97
62038;BME280;47991;42.974;12.082;2023-03-05T02:08:13;97476.52;;;-0.24;78.78
62038;BME280;47991;42.974;12.082;2023-03-05T02:11:06;97476.34;;;-0.24;77.81
62038;BME280;47991;42.974;12.082;2023-03-05T02:13:34;97476.70;;;-0.23;77.49
62038;BME280;47991;42.974;12.082;2023-03-05T02:16:03;97473.05;;;-0.23;77.91
62038;BME280;47991;42.974;12.082;2023-03-05T02:18:29;97474.61;;;-0.22;77.12
62038;BME280;47991;42.974;12.082;2023-03-05T02:23:31;97473.27;;;-0.19;78.66
62038;BME280;47991;42.974;12.082;2023-03-05T02:25:59;97470.49;;;-0.18;76.96
62038;BME280;47991;42.974;12.082;2023-03-05T02:28:47;97469.10;;;-0.19;78.11
62038;BME280;47991;42.974;12.082;2023-03-05T02:31:18;97468.39;;;-0.22;78.14
62038;BME280;47991;42.974;12.082;2023-03-05T02:33:44;97470.08;;;-0.26;77.18
62038;BME280;47991;42.974;12.082;2023-03-05T02:36:11;97472.48;;;-0.29;77.22
62038;BME280;47991;42.974;12.082;2023-03-05T02:38:38;97470.70;;;-0.31;77.47
62038;BME280;47991;42.974;12.082;2023-03-05T02:41:05;97467.45;;;-0.27;77.92
62038;BME280;47991;42.974;12.082;2023-03-05T02:43:31;97459.29;;;-0.27;79.14
62038;BME280;47991;42.974;12.082;2023-03-05T02:45:57;97460.98;;;-0.33;80.16
62038;BME280;47991;42.974;12.082;2023-03-05T02:48:24;97458.85;;;-0.37;80.97
62038;BME280;47991;42.974;12.082;2023-03-05T02:50:50;97459.40;;;-0.34;79.29
62038;BME280;47991;42.974;12.082;2023-03-05T02:53:16;97461.84;;;-0.33;78.81
62038;BME280;47991;42.974;12.082;2023-03-05T02:55:46;97458.58;;;-0.30;78.97
62038;BME280;47991;42.974;12.082;2023-03-05T02:58:12;97460.84;;;-0.29;78.85
62038;BME280;47991;42.974;12.082;2023-03-05T03:00:39;97458.76;;;-0.29;78.34
62038;BME280;47991;42.974;12.082;2023-03-05T03:03:05;97458.95;;;-0.26;78.93
62038;BME280;47991;42.974;12.082;2023-03-05T03:05:31;97455.63;;;-0.29;78.82
62038;BME280;47991;42.974;12.082;2023-03-05T03:07:57;97456.68;;;-0.29;78.32
62038;BME280;47991;42.974;12.082;2023-03-05T03:10:23;97452.00;;;-0.27;78.24
62038;BME280;47991;42.974;12.082;2023-03-05T03:12:49;97452.15;;;-0.30;78.29
62038;BME280;47991;42.974;12.082;2023-03-05T03:15:16;97451.94;;;-0.34;79.06
62038;BME280;47991;42.974;12.082;2023-03-05T03:17:44;97454.17;;;-0.36;79.19
62038;BME280;47991;42.974;12.082;2023-03-05T03:20:14;97455.86;;;-0.41;78.67
62038;BME280;47991;42.974;12.082;2023-03-05T03:22:43;97460.71;;;-0.42;78.35
62038;BME280;47991;42.974;12.082;2023-03-05T03:25:12;97457.20;;;-0.47;79.07
62038;BME280;47991;42.974;12.082;2023-03-05T03:27:39;97454.06;;;-0.47;79.18
62038;BME280;47991;42.974;12.082;2023-03-05T03:30:05;97456.13;;;-0.50;80.17
62038;BME280;47991;42.974;12.082;2023-03-05T03:32:32;97456.99;;;-0.50;79.32
62038;BME280;47991;42.974;12.082;2023-03-05T03:34:58;97456.81;;;-0.50;79.17
62038;BME280;47991;42.974;12.082;2023-03-05T03:37:25;97455.41;;;-0.50;79.61
62038;BME280;47991;42.974;12.082;2023-03-05T03:39:51;97455.59;;;-0.51;80.66
62038;BME280;47991;42.974;12.082;2023-03-05T03:42:18;97454.52;;;-0.54;80.47
62038;BME280;47991;42.974;12.082;2023-03-05T03:44:45;97448.06;;;-0.57;80.47
62038;BME280;47991;42.974;12.082;2023-03-05T03:47:11;97451.34;;;-0.59;79.89
62038;BME280;47991;42.974;12.082;2023-03-05T03:49:37;97449.21;;;-0.63;80.59
62038;BME280;47991;42.974;12.082;2023-03-05T03:52:04;97451.08;;;-0.66;80.38
62038;BME280;47991;42.974;12.082;2023-03-05T03:54:30;97454.56;;;-0.66;80.48
62038;BME280;47991;42.974;12.082;2023-03-05T03:56:57;97453.22;;;-0.62;80.12
62038;BME280;47991;42.974;12.082;2023-03-05T03:59:23;97456.11;;;-0.51;81.59
62038;BME280;47991;42.974;12.082;2023-03-05T04:01:51;97457.55;;;-0.46;80.67
62038;BME280;47991;42.974;12.082;2023-03-05T04:04:17;97456.65;;;-0.49;80.02
62038;BME280;47991;42.974;12.082;2023-03-05T04:06:43;97459.73;;;-0.52;80.21
62038;BME280;47991;42.974;12.082;2023-03-05T04:09:09;97461.98;;;-0.53;80.30
62038;BME280;47991;42.974;12.082;2023-03-05T04:11:36;97460.19;;;-0.59;79.80
62038;BME280;47991;42.974;12.082;2023-03-05T04:14:03;97465.18;;;-0.62;79.66
62038;BME280;47991;42.974;12.082;2023-03-05T04:16:30;97461.19;;;-0.64;80.04
62038;BME280;47991;42.974;12.082;2023-03-05T04:18:56;97462.70;;;-0.67;80.43
62038;BME280;47991;42.974;12.082;2023-03-05T04:21:22;97464.23;;;-0.68;79.76
62038;BME280;47991;42.974;12.082;2023-03-05T04:23:48;97460.43;;;-0.67;79.51
62038;BME280;47991;42.974;12.082;2023-03-05T04:26:14;97463.73;;;-0.68;80.00
62038;BME280;47991;42.974;12.082;2023-03-05T04:28:40;97463.88;;;-0.71;80.13
62038;BME280;47991;42.974;12.082;2023-03-05T04:31:07;97458.10;;;-0.75;79.70
62038;BME280;47991;42.974;12.082;2023-03-05T04:33:33;97460.35;;;-0.76;80.27
62038;BME280;47991;42.974;12.082;2023-03-05T04:36:25;97459.81;;;-0.78;79.76
62038;BME280;47991;42.974;12.082;2023-03-05T04:38:55;97456.51;;;-0.79;81.68
62038;BME280;47991;42.974;12.082;2023-03-05T04:41:21;97456.98;;;-0.82;81.83
62038;BME280;47991;42.974;12.082;2023-03-05T04:43:47;97452.63;;;-0.83;82.09
62038;BME280;47991;42.974;12.082;2023-03-05T04:46:13;97452.87;;;-0.78;82.01
62038;BME280;47991;42.974;12.082;2023-03-05T04:48:39;97453.30;;;-0.70;81.82
62038;BME280;47991;42.974;12.082;2023-03-05T04:51:05;97455.80;;;-0.63;81.39
62038;BME280;47991;42.974;12.082;2023-03-05T04:53:31;97452.69;;;-0.63;81.93
62038;BME280;47991;42.974;12.082;2023-03-05T04:55:57;97455.48;;;-0.61;81.13
62038;BME280;47991;42.974;12.082;2023-03-05T04:58:26;97455.48;;;-0.60;80.62
62038;BME280;47991;42.974;12.082;2023-03-05T05:00:52;97455.08;;;-0.65;80.00
62038;BME280;47991;42.974;12.082;2023-03-05T05:03:18;97455.89;;;-0.71;79.74
62038;BME280;47991;42.974;12.082;2023-03-05T05:05:44;97456.26;;;-0.70;80.15
62038;BME280;47991;42.974;12.082;2023-03-05T05:08:11;97454.18;;;-0.69;80.00
62038;BME280;47991;42.974;12.082;2023-03-05T05:10:37;97455.52;;;-0.73;79.79
62038;BME280;47991;42.974;12.082;2023-03-05T05:13:05;97457.23;;;-0.76;79.93
62038;BME280;47991;42.974;12.082;2023-03-05T05:15:31;97458.59;;;-0.80;80.06
62038;BME280;47991;42.974;12.082;2023-03-05T05:17:57;97457.70;;;-0.82;80.52
62038;BME280;47991;42.974;12.082;2023-03-05T05:20:24;97453.36;;;-0.95;80.20
62038;BME280;47991;42.974;12.082;2023-03-05T05:22:50;97456.52;;;-1.07;80.06
62038;BME280;47991;42.974;12.082;2023-03-05T05:25:16;97453.98;;;-1.16;80.43
62038;BME280;47991;42.974;12.082;2023-03-05T05:27:42;97450.89;;;-1.13;80.76
62038;BME280;47991;42.974;12.082;2023-03-05T05:30:09;97448.81;;;-1.13;81.12
62038;BME280;47991;42.974;12.082;2023-03-05T05:32:36;97444.41;;;-1.18;80.96
62038;BME280;47991;42.974;12.082;2023-03-05T05:35:02;97444.14;;;-1.26;80.94
62038;BME280;47991;42.974;12.082;2023-03-05T05:37:28;97443.15;;;-1.35;81.13
62038;BME280;47991;42.974;12.082;2023-03-05T05:39:55;97441.75;;;-1.36;80.65
62038;BME280;47991;42.974;12.082;2023-03-05T05:42:22;97440.55;;;-1.35;80.21
62038;BME280;47991;42.974;12.082;2023-03-05T05:44:49;97445.38;;;-1.37;80.58
62038;BME280;47991;42.974;12.082;2023-03-05T05:47:16;97446.06;;;-1.38;81.71
62038;BME280;47991;42.974;12.082;2023-03-05T05:49:42;97447.13;;;-1.35;81.32
62038;BME280;47991;42.974;12.082;2023-03-05T05:52:09;97447.19;;;-1.31;80.59
62038;BME280;47991;42.974;12.082;2023-03-05T05:54:35;97449.14;;;-1.28;80.67
62038;BME280;47991;42.974;12.082;2023-03-05T05:57:01;97447.34;;;-1.20;80.52
62038;BME280;47991;42.974;12.082;2023-03-05T05:59:28;97451.27;;;-1.11;80.04
62038;BME280;47991;42.974;12.082;2023-03-05T06:01:54;97453.08;;;-1.05;80.01
62038;BME280;47991;42.974;12.082;2023-03-05T06:04:21;97455.52;;;-0.73;80.20
62038;BME280;47991;42.974;12.082;2023-03-05T06:06:47;97456.77;;;-0.17;79.84
62038;BME280;47991;42.974;12.082;2023-03-05T06:09:13;97458.42;;;0.13;79.77
62038;BME280;47991;42.974;12.082;2023-03-05T06:11:39;97453.83;;;0.54;79.15
62038;BME280;47991;42.974;12.082;2023-03-05T06:14:06;97454.73;;;0.93;77.78
62038;BME280;47991;42.974;12.082;2023-03-05T06:16:33;97457.20;;;1.46;76.74
62038;BME280;47991;42.974;12.082;2023-03-05T06:19:00;97459.48;;;1.51;76.92
62038;BME280;47991;42.974;12.082;2023-03-05T06:21:29;97461.88;;;1.40;76.94
62038;BME280;47991;42.974;12.082;2023-03-05T06:23:56;97466.26;;;1.43;77.37
62038;BME280;47991;42.974;12.082;2023-03-05T06:26:24;97467.47;;;1.47;77.68
62038;BME280;47991;42.974;12.082;2023-03-05T06:28:51;97471.33;;;1.54;76.32
62038;BME280;47991;42.974;12.082;2023-03-05T06:31:23;97472.03;;;1.55;76.42
62038;BME280;47991;42.974;12.082;2023-03-05T06:33:58;97474.99;;;1.56;76.89
62038;BME280;47991;42.974;12.082;2023-03-05T06:36:26;97476.23;;;1.68;77.31
62038;BME280;47991;42.974;12.082;2023-03-05T06:38:53;97480.95;;;1.75;77.31
62038;BME280;47991;42.974;12.082;2023-03-05T06:41:28;97485.50;;;1.86;77.22
62038;BME280;47991;42.974;12.082;2023-03-05T06:43:55;97486.91;;;1.91;76.82
62038;BME280;47991;42.974;12.082;2023-03-05T06:46:27;97487.10;;;2.06;76.44
62038;BME280;47991;42.974;12.082;2023-03-05T06:48:55;97485.36;;;2.20;76.22
62038;BME280;47991;42.974;12.082;2023-03-05T06:51:31;97476.14;;;3.02;76.10
62038;BME280;47991;42.974;12.082;2023-03-05T06:54:06;97473.30;;;5.02;71.52
62038;BME280;47991;42.974;12.082;2023-03-05T06:56:34;97461.89;;;7.22;64.67
62038;BME280;47991;42.974;12.082;2023-03-05T06:59:01;97456.46;;;8.27;60.93
62038;BME280;47991;42.974;12.082;2023-03-05T07:01:27;97453.83;;;9.16;59.29
62038;BME280;47991;42.974;12.082;2023-03-05T07:03:54;97451.11;;;10.09;56.98
62038;BME280;47991;42.974;12.082;2023-03-05T07:06:23;97459.20;;;9.38;56.14
62038;BME280;47991;42.974;12.082;2023-03-05T07:08:50;97456.48;;;8.48;55.44
62038;BME280;47991;42.974;12.082;2023-03-05T07:11:19;97461.70;;;8.29;58.55
62038;BME280;47991;42.974;12.082;2023-03-05T07:13:46;97456.71;;;8.54;62.18
62038;BME280;47991;42.974;12.082;2023-03-05T07:16:15;97459.67;;;8.25;59.66
62038;BME280;47991;42.974;12.082;2023-03-05T07:18:42;97460.66;;;7.59;61.28
62038;BME280;47991;42.974;12.082;2023-03-05T07:21:08;97467.55;;;7.14;62.67
62038;BME280;47991;42.974;12.082;2023-03-05T07:23:37;97466.09;;;6.68;64.03
62038;BME280;47991;42.974;12.082;2023-03-05T07:26:05;97471.27;;;6.21;63.91
62038;BME280;47991;42.974;12.082;2023-03-05T07:28:32;97474.98;;;5.96;64.34
62038;BME280;47991;42.974;12.082;2023-03-05T07:31:04;97475.44;;;5.87;66.24
62038;BME280;47991;42.974;12.082;2023-03-05T07:33:31;97474.23;;;5.85;66.96
62038;BME280;47991;42.974;12.082;2023-03-05T07:35:59;97472.80;;;5.88;67.65
62038;BME280;47991;42.974;12.082;2023-03-05T07:38:26;97474.85;;;5.92;67.70
62038;BME280;47991;42.974;12.082;2023-03-05T07:40:52;97474.27;;;5.97;68.16
62038;BME280;47991;42.974;12.082;2023-03-05T07:43:19;97476.13;;;5.89;66.12
62038;BME280;47991;42.974;12.082;2023-03-05T07:45:45;97471.36;;;5.91;66.47
62038;BME280;47991;42.974;12.082;2023-03-05T07:48:14;97474.50;;;5.92;65.62
62038;BME280;47991;42.974;12.082;2023-03-05T07:50:40;97475.31;;;5.98;66.20
62038;BME280;47991;42.974;12.082;2023-03-05T07:53:10;97467.41;;;6.22;66.75
62038;BME280;47991;42.974;12.082;2023-03-05T07:55:45;97469.61;;;6.58;66.32
62038;BME280;47991;42.974;12.082;2023-03-05T07:58:12;97473.87;;;6.76;65.35
62038;BME280;47991;42.974;12.082;2023-03-05T08:00:39;97476.67;;;6.87;64.91
62038;BME280;47991;42.974;12.082;2023-03-05T08:03:06;97480.48;;;7.35;63.90
62038;BME280;47991;42.974;12.082;2023-03-05T08:05:32;97484.44;;;7.40;64.11
62038;BME280;47991;42.974;12.082;2023-03-05T08:07:59;97486.84;;;7.25;64.80
62038;BME280;47991;42.974;12.082;2023-03-05T08:10:25;97485.16;;;8.26;60.94
62038;BME280;47991;42.974;12.082;2023-03-05T08:12:51;97481.37;;;9.41;57.81
62038;BME280;47991;42.974;12.082;2023-03-05T08:15:17;97479.02;;;8.98;57.44
62038;BME280;47991;42.974;12.082;2023-03-05T08:17:43;97477.27;;;8.48;60.28
62038;BME280;47991;42.974;12.082;2023-03-05T08:20:10;97477.41;;;7.81;59.65
62038;BME280;47991;42.974;12.082;2023-03-05T08:22:37;97474.61;;;8.62;57.73
62038;BME280;47991;42.974;12.082;2023-03-05T08:25:04;97471.63;;;9.72;54.94
62038;BME280;47991;42.974;12.082;2023-03-05T08:27:31;97471.23;;;9.68;53.43
62038;BME280;47991;42.974;12.082;2023-03-05T08:29:57;97466.50;;;9.11;54.14
62038;BME280;47991;42.974;12.082;2023-03-05T08:32:23;97464.83;;;9.07;54.84
62038;BME280;47991;42.974;12.082;2023-03-05T08:34:49;97464.63;;;9.02;54.77
62038;BME280;47991;42.974;12.082;2023-03-05T08:37:15;97461.80;;;8.89;54.74
62038;BME280;47991;42.974;12.082;2023-03-05T08:39:41;97462.17;;;8.82;54.49
62038;BME280;47991;42.974;12.082;2023-03-05T08:42:08;97463.69;;;8.78;57.84
62038;BME280;47991;42.974;12.082;2023-03-05T08:44:34;97464.27;;;8.61;58.93
62038;BME280;47991;42.974;12.082;2023-03-05T08:47:00;97463.23;;;9.53;58.14
62038;BME280;47991;42.974;12.082;2023-03-05T08:49:26;97461.48;;;9.46;57.21
62038;BME280;47991;42.974;12.082;2023-03-05T08:51:52;97461.33;;;9.13;57.77
62038;BME280;47991;42.974;12.082;2023-03-05T08:54:18;97458.33;;;9.13;57.29
62038;BME280;47991;42.974;12.082;2023-03-05T08:56:44;97455.41;;;9.04;58.61
62038;BME280;47991;42.974;12.082;2023-03-05T08:59:10;97454.17;;;9.17;57.96
62038;BME280;47991;42.974;12.082;2023-03-05T09:01:36;97458.35;;;9.31;56.92
62038;BME280;47991;42.974;12.082;2023-03-05T09:04:03;97456.95;;;9.37;56.58
62038;BME280;47991;42.974;12.082;2023-03-05T09:06:29;97451.03;;;9.41;54.64
62038;BME280;47991;42.974;12.082;2023-03-05T09:08:55;97448.55;;;9.53;57.08
62038;BME280;47991;42.974;12.082;2023-03-05T09:11:21;97446.67;;;9.87;53.88
62038;BME280;47991;42.974;12.082;2023-03-05T09:13:48;97443.14;;;10.09;52.67
62038;BME280;47991;42.974;12.082;2023-03-05T09:16:15;97441.43;;;9.96;53.93
62038;BME280;47991;42.974;12.082;2023-03-05T09:18:42;97443.58;;;9.84;52.90
62038;BME280;47991;42.974;12.082;2023-03-05T09:21:11;97443.92;;;9.66;52.15
62038;BME280;47991;42.974;12.082;2023-03-05T09:23:39;97441.91;;;9.57;52.86
62038;BME280;47991;42.974;12.082;2023-03-05T09:26:07;97437.61;;;9.71;52.85
62038;BME280;47991;42.974;12.082;2023-03-05T09:28:34;97438.67;;;9.83;52.54
62038;BME280;47991;42.974;12.082;2023-03-05T09:31:02;97436.96;;;9.87;52.05
62038;BME280;47991;42.974;12.082;2023-03-05T09:33:29;97433.02;;;9.95;50.80
62038;BME280;47991;42.974;12.082;2023-03-05T09:35:55;97433.52;;;10.06;50.00
62038;BME280;47991;42.974;12.082;2023-03-05T09:38:22;97434.50;;;10.03;50.29
62038;BME280;47991;42.974;12.082;2023-03-05T09:43:28;97422.11;;;10.26;50.37
62038;BME280;47991;42.974;12.082;2023-03-05T09:51:07;97424.33;;;10.41;50.17
62038;BME280;47991;42.974;12.082;2023-03-05T09:53:43;97421.02;;;10.55;50.72
62038;BME280;47991;42.974;12.082;2023-03-05T09:56:15;97420.75;;;10.63;49.36
62038;BME280;47991;42.974;12.082;2023-03-05T10:01:39;97420.80;;;10.82;47.10
62038;BME280;47991;42.974;12.082;2023-03-05T10:04:15;97423.99;;;11.07;48.05
62038;BME280;47991;42.974;12.082;2023-03-05T10:06:48;97421.21;;;10.95;46.39
62038;BME280;47991;42.974;12.082;2023-03-05T10:11:56;97418.21;;;11.05;45.65
62038;BME280;47991;42.974;12.082;2023-03-05T10:14:28;97415.77;;;11.19;45.29
62038;BME280;47991;42.974;12.082;2023-03-05T10:17:03;97420.20;;;11.38;44.98
62038;BME280;47991;42.974;12.082;2023-03-05T10:22:14;97413.82;;;11.67;44.34
62038;BME280;47991;42.974;12.082;2023-03-05T10:43:16;97406.31;;;13.15;39.07
62038;BME280;47991;42.974;12.082;2023-03-05T10:45:47;97402.23;;;13.39;41.11
62038;BME280;47991;42.974;12.082;2023-03-05T10:50:59;97403.16;;;13.62;40.16
62038;BME280;47991;42.974;12.082;2023-03-05T10:53:56;97399.17;;;13.71;39.77
62038;BME280;47991;42.974;12.082;2023-03-05T10:56:25;97395.50;;;13.66;39.68
62038;BME280;47991;42.974;12.082;2023-03-05T10:58:52;97396.38;;;13.70;39.54
62038;BME280;47991;42.974;12.082;2023-03-05T11:06:30;97387.40;;;13.98;39.10
62038;BME280;47991;42.974;12.082;2023-03-05T11:12:14;97383.50;;;14.05;38.01
62038;BME280;47991;42.974;12.082;2023-03-05T11:17:40;97384.79;;;14.19;39.20
62038;BME280;47991;42.974;12.082;2023-03-05T11:28:19;97373.55;;;14.27;37.71
62038;BME280;47991;42.974;12.082;2023-03-05T11:30:58;97364.08;;;14.35;39.53
62038;BME280;47991;42.974;12.082;2023-03-05T11:33:25;97358.60;;;14.31;37.48
62038;BME280;47991;42.974;12.082;2023-03-05T11:36:12;97353.04;;;14.32;40.73
62038;BME280;47991;42.974;12.082;2023-03-05T11:38:56;97351.52;;;14.27;41.67
62038;BME280;47991;42.974;12.082;2023-03-05T11:41:31;97346.73;;;14.31;41.95
62038;BME280;47991;42.974;12.082;2023-03-05T11:44:00;97342.48;;;14.33;42.03
62038;BME280;47991;42.974;12.082;2023-03-05T11:46:36;97341.95;;;14.22;42.00
62038;BME280;47991;42.974;12.082;2023-03-05T11:49:04;97338.05;;;14.26;42.99
62038;BME280;47991;42.974;12.082;2023-03-05T11:51:39;97335.34;;;14.34;43.61
62038;BME280;47991;42.974;12.082;2023-03-05T11:54:13;97329.39;;;14.43;44.20
62038;BME280;47991;42.974;12.082;2023-03-05T11:56:42;97323.64;;;14.26;43.71
62038;BME280;47991;42.974;12.082;2023-03-05T11:59:26;97318.39;;;14.25;43.71
62038;BME280;47991;42.974;12.082;2023-03-05T12:01:59;97315.75;;;14.38;43.99
62038;BME280;47991;42.974;12.082;2023-03-05T12:04:25;97311.09;;;14.67;44.07
62038;BME280;47991;42.974;12.082;2023-03-05T12:06:57;97311.30;;;14.73;44.18
62038;BME280;47991;42.974;12.082;2023-03-05T12:09:45;97312.33;;;14.74;44.30
62038;BME280;47991;42.974;12.082;2023-03-05T12:14:52;97301.85;;;14.94;44.47
62038;BME280;47991;42.974;12.082;2023-03-05T12:17:43;97294.11;;;14.96;44.83
62038;BME280;47991;42.974;12.082;2023-03-05T12:20:13;97292.15;;;14.76;43.20
62038;BME280;47991;42.974;12.082;2023-03-05T12:22:43;97291.77;;;14.58;44.40
62038;BME280;47991;42.974;12.082;2023-03-05T12:25:34;97288.05;;;14.76;43.99
62038;BME280;47991;42.974;12.082;2023-03-05T12:28:16;97280.45;;;14.88;44.55
62038;BME280;47991;42.974;12.082;2023-03-05T12:31:25;97275.10;;;15.02;44.94
62038;BME280;47991;42.974;12.082;2023-03-05T12:33:51;97267.91;;;15.26;44.27
62038;BME280;47991;42.974;12.082;2023-03-05T12:46:35;97254.84;;;15.97;42.82
62038;BME280;47991;42.974;12.082;2023-03-05T12:51:53;97257.14;;;16.21;44.13
62038;BME280;47991;42.974;12.082;2023-03-05T12:54:33;97255.13;;;16.55;43.00
62038;BME280;47991;42.974;12.082;2023-03-05T12:57:03;97250.95;;;16.68;41.83
62038;BME280;47991;42.974;12.082;2023-03-05T12:59:41;97247.66;;;16.72;41.17
62038;BME280;47991;42.974;12.082;2023-03-05T13:02:21;97240.66;;;16.79;41.33
62038;BME280;47991;42.974;12.082;2023-03-05T13:04:48;97241.60;;;16.98;41.67
62038;BME280;47991;42.974;12.082;2023-03-05T13:07:18;97234.54;;;17.26;42.15
62038;BME280;47991;42.974;12.082;2023-03-05T13:09:55;97228.46;;;17.53;40.45
62038;BME280;47991;42.974;12.082;2023-03-05T13:12:23;97227.80;;;17.71;39.10
62038;BME280;47991;42.974;12.082;2023-03-05T13:14:58;97224.09;;;18.01;40.60
62038;BME280;47991;42.974;12.082;2023-03-05T13:23:15;97224.33;;;18.24;38.63
62038;BME280;47991;42.974;12.082;2023-03-05T13:26:15;97219.02;;;18.42;40.60
62038;BME280;47991;42.974;12.082;2023-03-05T13:29:12;97216.94;;;18.56;40.69
62038;BME280;47991;42.974;12.082;2023-03-05T13:31:45;97216.80;;;18.87;39.98
62038;BME280;47991;42.974;12.082;2023-03-05T13:34:22;97205.13;;;18.93;38.32
62038;BME280;47991;42.974;12.082;2023-03-05T13:36:56;97213.36;;;18.90;38.29
62038;BME280;47991;42.974;12.082;2023-03-05T13:39:29;97206.92;;;19.20;40.25
62038;BME280;47991;42.974;12.082;2023-03-05T13:42:01;97200.71;;;19.27;38.81
62038;BME280;47991;42.974;12.082;2023-03-05T13:44:28;97197.77;;;19.30;38.58
62038;BME280;47991;42.974;12.082;2023-03-05T13:47:16;97192.58;;;19.35;37.87
62038;BME280;47991;42.974;12.082;2023-03-05T13:49:43;97188.56;;;19.14;36.77
62038;BME280;47991;42.974;12.082;2023-03-05T13:52:10;97190.64;;;19.30;36.66
62038;BME280;47991;42.974;12.082;2023-03-05T13:54:36;97188.51;;;19.29;36.49
62038;BME280;47991;42.974;12.082;2023-03-05T13:57:05;97193.33;;;19.32;39.19
62038;BME280;47991;42.974;12.082;2023-03-05T13:59:36;97188.36;;;19.04;36.31
62038;BME280;47991;42.974;12.082;2023-03-05T14:02:14;97188.39;;;19.04;37.40
62038;BME280;47991;42.974;12.082;2023-03-05T14:04:43;97186.65;;;19.08;37.53
62038;BME280;47991;42.974;12.082;2023-03-05T14:07:23;97183.29;;;19.02;36.71
62038;BME280;47991;42.974;12.082;2023-03-05T14:09:52;97187.29;;;18.84;35.33
62038;BME280;47991;42.974;12.082;2023-03-05T14:14:56;97188.55;;;18.42;36.47
62038;BME280;47991;42.974;12.082;2023-03-05T14:17:52;97185.16;;;18.14;36.86
62038;BME280;47991;42.974;12.082;2023-03-05T14:20:23;97183.59;;;17.94;37.26
62038;BME280;47991;42.974;12.082;2023-03-05T14:22:58;97184.89;;;17.75;37.88
62038;BME280;47991;42.974;12.082;2023-03-05T14:25:32;97184.14;;;17.31;38.12
62038;BME280;47991;42.974;12.082;2023-03-05T14:28:05;97184.40;;;16.91;38.38
62038;BME280;47991;42.974;12.082;2023-03-05T14:30:32;97187.29;;;16.47;38.30